sensor_id;sensor_type;location;lat;lon;timestamp;pressure;altitude;pressure_sealevel;temperature;humidity
6899;BME280;3488;42.616;23.350;2022-09-09T00:01:09;63791.94;;;17.33;100.00
6899;BME280;3488;42.616;23.350;2022-09-09T00:03:43;63793.00;;;17.34;100.00
6899;BME280;3488;42.616;23.350;2022-09-09T00:06:16;63785.72;;;17.29;100.00
6899;BME280;3488;42.616;23.350;2022-09-09T00:09:01;63787.28;;;17.28;100.00
6899;BME280;3488;42.616;23.350;2022-09-09T00:11:33;63780.53;;;17.24;100.00
6899;BME280;3488;42.616;23.350;2022-09-09T00:14:11;63777.91;;;17.19;100.00
6899;BME280;3488;42.616;23.350;2022-09-09T00:16:42;63779.50;;;17.23;100.00
6899;BME280;3488;42.616;23.350;2022-09-09T00:19:20;63779.50;;;17.23;100.00
6899;BME280;3488;42.616;23.350;2022-09-09T00:21:55;63784.66;;;17.26;100.00
6899;BME280;3488;42.616;23.350;2022-09-09T00:24:27;63784.63;;;17.23;100.00
6899;BME280;3488;42.616;23.350;2022-09-09T00:27:01;63780.56;;;17.27;100.00
6899;BME280;3488;42.616;23.350;2022-09-09T00:29:34;63784.72;;;17.31;100.00
6899;BME280;3488;42.616;23.350;2022-09-09T00:32:12;63787.78;;;17.29;100.00
6899;BME280;3488;42.616;23.350;2022-09-09T00:34:47;63787.75;;;17.26;100.00
6899;BME280;3488;42.616;23.350;2022-09-09T00:37:15;63787.75;;;17.26;100.00
6899;BME280;3488;42.616;23.350;2022-09-09T00:39:44;63778.97;;;17.23;100.00
6899;BME280;3488;42.616;23.350;2022-09-09T00:42:14;63786.19;;;17.25;100.00
6899;BME280;3488;42.616;23.350;2022-09-09T00:44:53;63782.56;;;17.21;100.00
6899;BME280;3488;42.616;23.350;2022-09-09T00:47:43;63780.50;;;17.22;100.00
6899;BME280;3488;42.616;23.350;2022-09-09T00:50:37;63770.66;;;17.15;100.00
6899;BME280;3488;42.616;23.350;2022-09-09T00:53:19;63780.50;;;17.22;100.00
6899;BME280;3488;42.616;23.350;2022-09-09T00:55:56;63769.09;;;17.13;100.00
6899;BME280;3488;42.616;23.350;2022-09-09T00:58:27;63771.66;;;17.13;100.00
6899;BME280;3488;42.616;23.350;2022-09-09T01:00:57;63772.16;;;17.11;100.00
6899;BME280;3488;42.616;23.350;2022-09-09T01:03:34;63773.72;;;17.15;100.00
6899;BME280;3488;42.616;23.350;2022-09-09T01:06:12;63775.25;;;17.14;100.00
6899;BME280;3488;42.616;23.350;2022-09-09T01:11:43;63779.94;;;17.19;100.00
6899;BME280;3488;42.616;23.350;2022-09-09T01:14:22;63775.31;;;17.19;100.00
6899;BME280;3488;42.616;23.350;2022-09-09T01:16:54;63782.06;;;17.23;100.00
6899;BME280;3488;42.616;23.350;2022-09-09T01:19:31;63783.09;;;17.22;100.00
6899;BME280;3488;42.616;23.350;2022-09-09T01:22:11;63780.47;;;17.19;100.00
6899;BME280;3488;42.616;23.350;2022-09-09T01:24:45;63776.91;;;17.23;100.00
6899;BME280;3488;42.616;23.350;2022-09-09T01:27:17;63779.97;;;17.21;100.00
6899;BME280;3488;42.616;23.350;2022-09-09T01:29:45;63777.44;;;17.24;100.00
6899;BME280;3488;42.616;23.350;2022-09-09T01:32:38;63783.63;;;17.25;100.00
6899;BME280;3488;42.616;23.350;2022-09-09T01:35:07;63783.13;;;17.27;100.00
6899;BME280;3488;42.616;23.350;2022-09-09T01:37:37;63783.09;;;17.24;100.00
6899;BME280;3488;42.616;23.350;2022-09-09T01:40:05;63774.78;;;17.19;100.00
6899;BME280;3488;42.616;23.350;2022-09-09T01:42:33;63774.22;;;17.13;100.00
6899;BME280;3488;42.616;23.350;2022-09-09T01:45:00;63779.97;;;17.21;100.00
6899;BME280;3488;42.616;23.350;2022-09-09T01:47:27;63774.78;;;17.16;100.00
6899;BME280;3488;42.616;23.350;2022-09-09T01:49:54;63775.78;;;17.15;100.00
6899;BME280;3488;42.616;23.350;2022-09-09T01:52:21;63762.28;;;17.04;100.00
6899;BME280;3488;42.616;23.350;2022-09-09T01:54:48;63757.66;;;17.05;100.00
6899;BME280;3488;42.616;23.350;2022-09-09T01:57:18;63751.94;;;16.99;100.00
6899;BME280;3488;42.616;23.350;2022-09-09T01:59:58;63745.66;;;16.91;100.00
6899;BME280;3488;42.616;23.350;2022-09-09T02:02:30;63748.78;;;16.94;100.00
6899;BME280;3488;42.616;23.350;2022-09-09T02:05:07;63742.03;;;16.87;100.00
6899;BME280;3488;42.616;23.350;2022-09-09T02:07:39;63739.88;;;16.80;100.00
6899;BME280;3488;42.616;23.350;2022-09-09T02:10:11;63733.13;;;16.76;100.00
6899;BME280;3488;42.616;23.350;2022-09-09T02:12:42;63732.06;;;16.73;100.00
6899;BME280;3488;42.616;23.350;2022-09-09T02:15:17;63730.56;;;16.76;100.00
6899;BME280;3488;42.616;23.350;2022-09-09T02:17:46;63719.13;;;16.65;100.00
6899;BME280;3488;42.616;23.350;2022-09-09T02:20:16;63724.78;;;16.66;100.00
6899;BME280;3488;42.616;23.350;2022-09-09T02:22:47;63720.13;;;16.64;100.00
6899;BME280;3488;42.616;23.350;2022-09-09T02:25:18;63718.09;;;16.64;100.00
6899;BME280;3488;42.616;23.350;2022-09-09T02:27:47;63709.72;;;16.54;100.00
6899;BME280;3488;42.616;23.350;2022-09-09T02:30:18;63707.13;;;16.51;100.00
6899;BME280;3488;42.616;23.350;2022-09-09T02:32:47;63703.50;;;16.50;100.00
6899;BME280;3488;42.616;23.350;2022-09-09T02:35:18;63681.16;;;16.31;100.00
6899;BME280;3488;42.616;23.350;2022-09-09T02:37:46;63707.13;;;16.51;100.00
6899;BME280;3488;42.616;23.350;2022-09-09T02:40:14;63703.50;;;16.50;100.00
6899;BME280;3488;42.616;23.350;2022-09-09T02:42:43;63701.97;;;16.49;100.00
6899;BME280;3488;42.616;23.350;2022-09-09T02:45:12;63695.72;;;16.45;100.00
6899;BME280;3488;42.616;23.350;2022-09-09T02:47:47;63700.94;;;16.48;100.00
6899;BME280;3488;42.616;23.350;2022-09-09T02:50:19;63705.53;;;16.47;100.00
6899;BME280;3488;42.616;23.350;2022-09-09T02:52:59;63700.88;;;16.45;100.00
6899;BME280;3488;42.616;23.350;2022-09-09T02:55:37;63705.53;;;16.47;100.00
6899;BME280;3488;42.616;23.350;2022-09-09T02:58:07;63705.06;;;16.49;100.00
6899;BME280;3488;42.616;23.350;2022-09-09T03:00:36;63697.25;;;16.44;100.00
6899;BME280;3488;42.616;23.350;2022-09-09T03:03:06;63703.44;;;16.45;100.00
6899;BME280;3488;42.616;23.350;2022-09-09T03:05:34;63696.19;;;16.41;100.00
6899;BME280;3488;42.616;23.350;2022-09-09T03:08:01;63694.13;;;16.41;100.00
6899;BME280;3488;42.616;23.350;2022-09-09T03:10:28;63695.69;;;16.43;100.00
6899;BME280;3488;42.616;23.350;2022-09-09T03:12:55;63693.06;;;16.38;100.00
6899;BME280;3488;42.616;23.350;2022-09-09T03:15:22;63689.44;;;16.34;100.00
6899;BME280;3488;42.616;23.350;2022-09-09T03:17:49;63687.31;;;16.30;100.00
6899;BME280;3488;42.616;23.350;2022-09-09T03:20:18;63679.53;;;16.22;100.00
6899;BME280;3488;42.616;23.350;2022-09-09T03:22:45;63672.78;;;16.18;100.00
6899;BME280;3488;42.616;23.350;2022-09-09T03:25:11;63666.03;;;16.14;100.00
6899;BME280;3488;42.616;23.350;2022-09-09T03:27:38;63674.88;;;16.20;100.00
6899;BME280;3488;42.616;23.350;2022-09-09T03:30:06;63667.06;;;16.12;100.00
6899;BME280;3488;42.616;23.350;2022-09-09T03:32:33;63668.63;;;16.14;100.00
6899;BME280;3488;42.616;23.350;2022-09-09T03:35:00;63671.22;;;16.16;100.00
6899;BME280;3488;42.616;23.350;2022-09-09T03:37:28;63671.25;;;16.19;100.00
6899;BME280;3488;42.616;23.350;2022-09-09T03:39:55;63672.25;;;16.15;100.00
6899;BME280;3488;42.616;23.350;2022-09-09T03:42:22;63667.66;;;16.18;100.00
6899;BME280;3488;42.616;23.350;2022-09-09T03:44:49;63666.56;;;16.14;100.00
6899;BME280;3488;42.616;23.350;2022-09-09T03:47:17;63678.47;;;16.21;100.00
6899;BME280;3488;42.616;23.350;2022-09-09T03:49:44;63677.94;;;16.20;100.00
6899;BME280;3488;42.616;23.350;2022-09-09T03:52:12;63684.72;;;16.27;100.00
6899;BME280;3488;42.616;23.350;2022-09-09T03:54:40;63672.25;;;16.15;100.00
6899;BME280;3488;42.616;23.350;2022-09-09T03:57:08;63651.47;;;15.97;100.00
6899;BME280;3488;42.616;23.350;2022-09-09T03:59:35;63652.50;;;15.98;100.00
6899;BME280;3488;42.616;23.350;2022-09-09T04:02:02;63651.00;;;16.02;100.00
6899;BME280;3488;42.616;23.350;2022-09-09T04:04:29;63659.25;;;16.05;100.00
6899;BME280;3488;42.616;23.350;2022-09-09T04:06:56;63657.69;;;16.03;100.00
6899;BME280;3488;42.616;23.350;2022-09-09T04:09:23;63656.66;;;16.02;100.00
6899;BME280;3488;42.616;23.350;2022-09-09T04:11:52;63657.22;;;16.05;100.00
6899;BME280;3488;42.616;23.350;2022-09-09T04:14:20;63665.47;;;16.08;100.00
6899;BME280;3488;42.616;23.350;2022-09-09T04:16:47;63670.16;;;16.15;100.00
6899;BME280;3488;42.616;23.350;2022-09-09T04:19:14;63675.88;;;16.18;100.00
6899;BME280;3488;42.616;23.350;2022-09-09T04:21:41;63673.84;;;16.22;100.00
6899;BME280;3488;42.616;23.350;2022-09-09T04:24:09;63678.56;;;16.29;100.00
6899;BME280;3488;42.616;23.350;2022-09-09T04:26:36;63685.75;;;16.28;100.00
6899;BME280;3488;42.616;23.350;2022-09-09T04:29:05;63683.19;;;16.28;100.00
6899;BME280;3488;42.616;23.350;2022-09-09T04:31:32;63691.00;;;16.36;100.00
6899;BME280;3488;42.616;23.350;2022-09-09T04:33:59;63694.13;;;16.41;100.00
6899;BME280;3488;42.616;23.350;2022-09-09T04:36:30;63701.44;;;16.48;100.00
6899;BME280;3488;42.616;23.350;2022-09-09T04:38:57;63712.81;;;16.54;100.00
6899;BME280;3488;42.616;23.350;2022-09-09T04:41:24;63707.19;;;16.56;100.00
6899;BME280;3488;42.616;23.350;2022-09-09T04:43:51;63708.75;;;16.58;100.00
6899;BME280;3488;42.616;23.350;2022-09-09T04:46:20;63714.94;;;16.59;100.00
6899;BME280;3488;42.616;23.350;2022-09-09T04:48:48;63718.56;;;16.62;100.00
6899;BME280;3488;42.616;23.350;2022-09-09T04:51:15;63723.81;;;16.70;100.00
6899;BME280;3488;42.616;23.350;2022-09-09T04:53:42;63733.13;;;16.76;100.00
6899;BME280;3488;42.616;23.350;2022-09-09T04:56:10;63741.47;;;16.84;100.00
6899;BME280;3488;42.616;23.350;2022-09-09T04:58:38;63751.91;;;16.97;100.00
6899;BME280;3488;42.616;23.350;2022-09-09T05:01:09;63762.84;;;17.07;100.00
6899;BME280;3488;42.616;23.350;2022-09-09T05:03:37;63777.91;;;17.19;100.00
6899;BME280;3488;42.616;23.350;2022-09-09T05:06:06;63785.28;;;17.34;100.00
6899;BME280;3488;42.616;23.350;2022-09-09T05:08:34;63790.91;;;17.32;100.00
6899;BME280;3488;42.616;23.350;2022-09-09T05:11:00;63807.06;;;17.48;100.00
6899;BME280;3488;42.616;23.350;2022-09-09T05:13:28;63815.97;;;17.61;100.00
6899;BME280;3488;42.616;23.350;2022-09-09T05:15:57;63841.94;;;17.81;100.00
6899;BME280;3488;42.616;23.350;2022-09-09T05:18:24;63858.63;;;17.97;100.00
6899;BME280;3488;42.616;23.350;2022-09-09T05:20:52;63864.34;;;18.03;100.00
6899;BME280;3488;42.616;23.350;2022-09-09T05:23:24;63853.91;;;17.90;100.00
6899;BME280;3488;42.616;23.350;2022-09-09T05:25:55;63826.91;;;17.72;100.00
6899;BME280;3488;42.616;23.350;2022-09-09T05:28:23;63849.72;;;17.86;100.00
6899;BME280;3488;42.616;23.350;2022-09-09T05:30:56;63868.50;;;18.07;100.00
6899;BME280;3488;42.616;23.350;2022-09-09T05:33:23;63865.94;;;18.07;100.00
6899;BME280;3488;42.616;23.350;2022-09-09T05:35:59;63864.38;;;18.05;100.00
6899;BME280;3488;42.616;23.350;2022-09-09T05:38:27;63849.28;;;17.93;100.00
6899;BME280;3488;42.616;23.350;2022-09-09T05:40:54;63863.88;;;18.05;100.00
6899;BME280;3488;42.616;23.350;2022-09-09T05:43:23;63859.16;;;17.98;100.00
6899;BME280;3488;42.616;23.350;2022-09-09T05:45:59;63858.66;;;18.00;100.00
6899;BME280;3488;42.616;23.350;2022-09-09T05:48:28;63849.75;;;17.89;100.00
6899;BME280;3488;42.616;23.350;2022-09-09T05:50:58;63855.03;;;17.99;100.00
6899;BME280;3488;42.616;23.350;2022-09-09T05:53:25;63880.97;;;18.14;100.00
6899;BME280;3488;42.616;23.350;2022-09-09T05:55:59;63877.88;;;18.13;100.00
6899;BME280;3488;42.616;23.350;2022-09-09T05:58:26;63851.91;;;17.96;100.00
6899;BME280;3488;42.616;23.350;2022-09-09T06:00:59;63884.66;;;18.22;100.00
6899;BME280;3488;42.616;23.350;2022-09-09T06:03:26;63919.59;;;18.56;100.00
6899;BME280;3488;42.616;23.350;2022-09-09T06:05:58;63929.53;;;18.68;100.00
6899;BME280;3488;42.616;23.350;2022-09-09T06:08:26;63937.28;;;18.71;100.00
6899;BME280;3488;42.616;23.350;2022-09-09T06:10:53;63909.69;;;18.47;100.00
6899;BME280;3488;42.616;23.350;2022-09-09T06:13:20;63895.63;;;18.35;100.00
6899;BME280;3488;42.616;23.350;2022-09-09T06:15:50;63919.59;;;18.59;100.00
6899;BME280;3488;42.616;23.350;2022-09-09T06:18:18;63916.47;;;18.53;100.00
6899;BME280;3488;42.616;23.350;2022-09-09T06:20:54;63937.28;;;18.71;100.00
6899;BME280;3488;42.616;23.350;2022-09-09T06:23:22;63957.09;;;18.90;100.00
6899;BME280;3488;42.616;23.350;2022-09-09T06:25:49;63949.31;;;18.87;99.19
6899;BME280;3488;42.616;23.350;2022-09-09T06:28:16;63972.25;;;19.07;98.68
6899;BME280;3488;42.616;23.350;2022-09-09T06:30:43;63978.50;;;19.13;98.03
6899;BME280;3488;42.616;23.350;2022-09-09T06:33:11;63980.59;;;19.17;97.39
6899;BME280;3488;42.616;23.350;2022-09-09T06:35:38;63999.38;;;19.35;97.22
6899;BME280;3488;42.616;23.350;2022-09-09T06:38:06;64027.03;;;19.62;94.86
6899;BME280;3488;42.616;23.350;2022-09-09T06:40:36;64034.88;;;19.72;94.51
6899;BME280;3488;42.616;23.350;2022-09-09T06:43:05;64041.63;;;19.76;92.83
6899;BME280;3488;42.616;23.350;2022-09-09T06:45:32;64069.81;;;20.03;91.77
6899;BME280;3488;42.616;23.350;2022-09-09T06:48:02;64096.41;;;20.26;89.14
6899;BME280;3488;42.616;23.350;2022-09-09T06:50:29;64091.72;;;20.24;89.72
6899;BME280;3488;42.616;23.350;2022-09-09T06:52:55;64089.06;;;20.17;89.61
6899;BME280;3488;42.616;23.350;2022-09-09T06:55:22;64098.47;;;20.26;89.29
6899;BME280;3488;42.616;23.350;2022-09-09T06:57:50;64137.09;;;20.63;86.42
6899;BME280;3488;42.616;23.350;2022-09-09T07:00:18;64138.66;;;20.64;86.28
6899;BME280;3488;42.616;23.350;2022-09-09T07:02:45;64151.75;;;20.85;84.05
6899;BME280;3488;42.616;23.350;2022-09-09T07:05:12;64158.47;;;20.81;84.45
6899;BME280;3488;42.616;23.350;2022-09-09T07:07:40;64167.84;;;20.90;84.00
6899;BME280;3488;42.616;23.350;2022-09-09T07:10:08;64175.75;;;21.03;84.11
6899;BME280;3488;42.616;23.350;2022-09-09T07:12:35;64184.63;;;21.11;83.95
6899;BME280;3488;42.616;23.350;2022-09-09T07:15:04;64190.94;;;21.22;83.68
6899;BME280;3488;42.616;23.350;2022-09-09T07:17:31;64203.44;;;21.29;82.36
6899;BME280;3488;42.616;23.350;2022-09-09T07:19:58;64203.44;;;21.29;81.42
6899;BME280;3488;42.616;23.350;2022-09-09T07:22:27;64226.38;;;21.49;79.16
6899;BME280;3488;42.616;23.350;2022-09-09T07:24:54;64215.94;;;21.36;79.05
6899;BME280;3488;42.616;23.350;2022-09-09T07:27:21;64191.44;;;21.20;81.15
6899;BME280;3488;42.616;23.350;2022-09-09T07:29:48;64213.88;;;21.39;80.57
6899;BME280;3488;42.616;23.350;2022-09-09T07:32:16;64243.16;;;21.72;79.31
6899;BME280;3488;42.616;23.350;2022-09-09T07:34:45;64263.50;;;21.85;78.36
6899;BME280;3488;42.616;23.350;2022-09-09T07:37:12;64282.34;;;22.08;77.24
6899;BME280;3488;42.616;23.350;2022-09-09T07:39:39;64314.72;;;22.34;76.34
6899;BME280;3488;42.616;23.350;2022-09-09T07:42:06;64311.63;;;22.38;75.64
6899;BME280;3488;42.616;23.350;2022-09-09T07:44:37;64319.41;;;22.38;73.34
6899;BME280;3488;42.616;23.350;2022-09-09T07:47:05;64339.81;;;22.58;71.42
6899;BME280;3488;42.616;23.350;2022-09-09T07:49:34;64312.66;;;22.37;72.17
6899;BME280;3488;42.616;23.350;2022-09-09T07:52:00;64321.03;;;22.45;71.48
6899;BME280;3488;42.616;23.350;2022-09-09T07:54:28;64359.72;;;22.79;70.84
6899;BME280;3488;42.616;23.350;2022-09-09T07:56:55;64368.59;;;22.88;67.44
6899;BME280;3488;42.616;23.350;2022-09-09T07:59:22;64403.09;;;23.21;65.91
6899;BME280;3488;42.616;23.350;2022-09-09T08:01:50;64406.22;;;23.22;65.87
6899;BME280;3488;42.616;23.350;2022-09-09T08:04:20;64424.06;;;23.41;62.58
6899;BME280;3488;42.616;23.350;2022-09-09T08:06:50;64419.38;;;23.42;62.54
6899;BME280;3488;42.616;23.350;2022-09-09T08:09:18;64437.66;;;23.57;64.03
6899;BME280;3488;42.616;23.350;2022-09-09T08:11:45;64472.72;;;23.88;60.28
6899;BME280;3488;42.616;23.350;2022-09-09T08:14:13;64466.94;;;23.85;60.78
6899;BME280;3488;42.616;23.350;2022-09-09T08:16:42;64485.31;;;24.05;59.07
6899;BME280;3488;42.616;23.350;2022-09-09T08:19:09;64455.44;;;23.71;58.10
6899;BME280;3488;42.616;23.350;2022-09-09T08:21:38;64484.22;;;23.99;58.05
6899;BME280;3488;42.616;23.350;2022-09-09T08:24:09;64490.00;;;24.05;58.09
6899;BME280;3488;42.616;23.350;2022-09-09T08:26:38;64474.28;;;23.89;59.88
6899;BME280;3488;42.616;23.350;2022-09-09T08:29:07;64507.28;;;24.21;57.68
6899;BME280;3488;42.616;23.350;2022-09-09T08:31:36;64535.03;;;24.53;56.38
6899;BME280;3488;42.616;23.350;2022-09-09T08:34:05;64593.16;;;25.06;55.14
6899;BME280;3488;42.616;23.350;2022-09-09T08:36:35;64648.19;;;25.59;55.35
6899;BME280;3488;42.616;23.350;2022-09-09T08:39:03;64702.16;;;26.08;51.60
6899;BME280;3488;42.616;23.350;2022-09-09T08:41:51;64710.03;;;26.15;50.17
6899;BME280;3488;42.616;23.350;2022-09-09T08:44:26;64713.16;;;26.18;49.66
6899;BME280;3488;42.616;23.350;2022-09-09T08:47:00;64704.25;;;26.10;49.32
6899;BME280;3488;42.616;23.350;2022-09-09T08:49:54;64689.06;;;25.95;50.42
6899;BME280;3488;42.616;23.350;2022-09-09T08:52:28;64647.66;;;25.58;51.62
6899;BME280;3488;42.616;23.350;2022-09-09T08:55:01;64667.03;;;25.74;51.70
6899;BME280;3488;42.616;23.350;2022-09-09T08:57:34;64712.63;;;26.18;48.96
6899;BME280;3488;42.616;23.350;2022-09-09T09:00:10;64721.03;;;26.26;47.99
6899;BME280;3488;42.616;23.350;2022-09-09T09:02:42;64732.06;;;26.42;47.97
6899;BME280;3488;42.616;23.350;2022-09-09T09:05:19;64769.28;;;26.72;47.67
6899;BME280;3488;42.616;23.350;2022-09-09T09:07:59;64682.22;;;25.89;48.12
6899;BME280;3488;42.616;23.350;2022-09-09T09:10:38;64681.19;;;25.93;48.74
6899;BME280;3488;42.616;23.350;2022-09-09T09:13:14;64704.78;;;26.08;48.33
6899;BME280;3488;42.616;23.350;2022-09-09T09:15:44;64743.56;;;26.48;48.76
6899;BME280;3488;42.616;23.350;2022-09-09T09:18:13;64742.53;;;26.47;48.25
6899;BME280;3488;42.616;23.350;2022-09-09T09:20:50;64763.03;;;26.71;46.76
6899;BME280;3488;42.616;23.350;2022-09-09T09:23:22;64791.81;;;26.91;45.25
6899;BME280;3488;42.616;23.350;2022-09-09T09:25:50;64821.19;;;27.22;45.26
6899;BME280;3488;42.616;23.350;2022-09-09T09:28:23;64846.91;;;27.44;45.12
6899;BME280;3488;42.616;23.350;2022-09-09T09:30:53;64816.47;;;27.20;46.03
6899;BME280;3488;42.616;23.350;2022-09-09T09:33:26;64786.59;;;26.91;46.30
6899;BME280;3488;42.616;23.350;2022-09-09T09:35:54;64804.94;;;27.04;45.79
6899;BME280;3488;42.616;23.350;2022-09-09T09:38:23;64814.91;;;27.13;46.92
6899;BME280;3488;42.616;23.350;2022-09-09T09:40:51;64820.69;;;27.24;46.52
6899;BME280;3488;42.616;23.350;2022-09-09T09:43:26;64815.97;;;27.17;45.26
6899;BME280;3488;42.616;23.350;2022-09-09T09:45:54;64803.88;;;27.03;46.04
6899;BME280;3488;42.616;23.350;2022-09-09T09:48:24;64788.66;;;26.86;46.21
6899;BME280;3488;42.616;23.350;2022-09-09T09:50:52;64739.38;;;26.46;46.37
6899;BME280;3488;42.616;23.350;2022-09-09T09:53:23;64755.63;;;26.62;46.43
6899;BME280;3488;42.616;23.350;2022-09-09T09:55:55;64778.72;;;26.76;45.81
6899;BME280;3488;42.616;23.350;2022-09-09T09:58:25;64747.25;;;26.51;46.39
6899;BME280;3488;42.616;23.350;2022-09-09T10:00:54;64780.31;;;26.83;47.53
6899;BME280;3488;42.616;23.350;2022-09-09T10:03:24;64806.00;;;27.05;46.73
6899;BME280;3488;42.616;23.350;2022-09-09T10:05:51;64797.63;;;27.02;46.50
6899;BME280;3488;42.616;23.350;2022-09-09T10:08:19;64824.34;;;27.25;45.84
6899;BME280;3488;42.616;23.350;2022-09-09T10:10:57;64845.34;;;27.43;45.61
6899;BME280;3488;42.616;23.350;2022-09-09T10:13:37;64830.13;;;27.30;44.50
6899;BME280;3488;42.616;23.350;2022-09-09T10:16:17;64794.97;;;26.94;44.70
6899;BME280;3488;42.616;23.350;2022-09-09T10:18:58;64751.44;;;26.58;45.15
6899;BME280;3488;42.616;23.350;2022-09-09T10:21:38;64732.56;;;26.35;46.48
6899;BME280;3488;42.616;23.350;2022-09-09T10:24:22;64713.19;;;26.21;46.13
6899;BME280;3488;42.616;23.350;2022-09-09T10:26:56;64674.38;;;25.81;48.00
6899;BME280;3488;42.616;23.350;2022-09-09T10:29:42;64688.50;;;25.97;46.53
6899;BME280;3488;42.616;23.350;2022-09-09T10:32:29;64715.78;;;26.21;46.32
6899;BME280;3488;42.616;23.350;2022-09-09T10:35:02;64692.72;;;26.01;46.84
6899;BME280;3488;42.616;23.350;2022-09-09T10:37:41;64698.50;;;26.04;46.39
6899;BME280;3488;42.616;23.350;2022-09-09T10:40:25;64639.25;;;25.48;48.01
6899;BME280;3488;42.616;23.350;2022-09-09T10:43:02;64615.16;;;25.25;48.12
6899;BME280;3488;42.616;23.350;2022-09-09T10:45:40;64612.50;;;25.17;48.80
6899;BME280;3488;42.616;23.350;2022-09-09T10:48:19;64602.53;;;25.07;49.35
6899;BME280;3488;42.616;23.350;2022-09-09T10:50:56;64601.00;;;25.13;49.12
6899;BME280;3488;42.616;23.350;2022-09-09T10:53:35;64630.34;;;25.37;48.98
6899;BME280;3488;42.616;23.350;2022-09-09T10:56:06;64645.00;;;25.51;48.27
6899;BME280;3488;42.616;23.350;2022-09-09T10:58:39;64661.28;;;25.69;48.52
6899;BME280;3488;42.616;23.350;2022-09-09T11:01:14;64651.31;;;25.57;49.25
6899;BME280;3488;42.616;23.350;2022-09-09T11:03:43;64635.06;;;25.46;48.95
6899;BME280;3488;42.616;23.350;2022-09-09T11:06:16;64653.41;;;25.59;49.02
6899;BME280;3488;42.616;23.350;2022-09-09T11:08:45;64643.44;;;25.54;49.00
6899;BME280;3488;42.616;23.350;2022-09-09T11:11:16;64657.06;;;25.65;48.73
6899;BME280;3488;42.616;23.350;2022-09-09T11:13:47;64660.75;;;25.73;48.13
6899;BME280;3488;42.616;23.350;2022-09-09T11:16:25;64677.00;;;25.86;48.19
6899;BME280;3488;42.616;23.350;2022-09-09T11:18:58;64691.66;;;25.98;48.05
6899;BME280;3488;42.616;23.350;2022-09-09T11:21:29;64712.63;;;26.15;47.80
6899;BME280;3488;42.616;23.350;2022-09-09T11:24:00;64727.31;;;26.30;48.71
6899;BME280;3488;42.616;23.350;2022-09-09T11:26:35;64724.72;;;26.30;48.13
6899;BME280;3488;42.616;23.350;2022-09-09T11:29:31;64725.19;;;26.25;49.60
6899;BME280;3488;42.616;23.350;2022-09-09T11:35:10;64691.13;;;25.97;50.22
6899;BME280;3488;42.616;23.350;2022-09-09T11:38:02;64702.69;;;26.13;50.12
6899;BME280;3488;42.616;23.350;2022-09-09T11:40:36;64727.31;;;26.30;49.59
6899;BME280;3488;42.616;23.350;2022-09-09T11:43:08;64740.44;;;26.47;51.89
6899;BME280;3488;42.616;23.350;2022-09-09T11:45:39;64737.28;;;26.44;50.09
6899;BME280;3488;42.616;23.350;2022-09-09T11:48:23;64754.06;;;26.58;51.20
6899;BME280;3488;42.616;23.350;2022-09-09T11:51:04;64757.72;;;26.61;52.42
6899;BME280;3488;42.616;23.350;2022-09-09T11:53:33;64761.44;;;26.70;53.88
6899;BME280;3488;42.616;23.350;2022-09-09T11:56:11;64791.31;;;26.93;52.71
6899;BME280;3488;42.616;23.350;2022-09-09T11:58:42;64792.34;;;26.92;51.77
6899;BME280;3488;42.616;23.350;2022-09-09T12:01:27;64802.84;;;27.04;50.83
6899;BME280;3488;42.616;23.350;2022-09-09T12:04:28;64795.50;;;26.97;50.44
6899;BME280;3488;42.616;23.350;2022-09-09T12:07:04;64822.25;;;27.20;50.14
6899;BME280;3488;42.616;23.350;2022-09-09T12:09:50;64790.25;;;26.92;49.52
6899;BME280;3488;42.616;23.350;2022-09-09T12:12:25;64780.84;;;26.83;48.46
6899;BME280;3488;42.616;23.350;2022-09-09T12:14:59;64801.81;;;27.08;48.47
6899;BME280;3488;42.616;23.350;2022-09-09T12:17:27;64812.28;;;27.11;49.34
6899;BME280;3488;42.616;23.350;2022-09-09T12:20:11;64800.22;;;27.04;49.48
6899;BME280;3488;42.616;23.350;2022-09-09T12:25:31;64839.56;;;27.37;48.55
6899;BME280;3488;42.616;23.350;2022-09-09T12:28:08;64861.13;;;27.63;48.78
6899;BME280;3488;42.616;23.350;2022-09-09T12:30:48;64861.09;;;27.60;47.49
6899;BME280;3488;42.616;23.350;2022-09-09T12:33:19;64833.31;;;27.39;48.74
6899;BME280;3488;42.616;23.350;2022-09-09T12:35:53;64812.81;;;27.14;47.62
6899;BME280;3488;42.616;23.350;2022-09-09T12:38:27;64828.59;;;27.32;47.20
6899;BME280;3488;42.616;23.350;2022-09-09T12:40:57;64830.66;;;27.31;46.96
6899;BME280;3488;42.616;23.350;2022-09-09T12:43:25;64865.81;;;27.57;47.15
6899;BME280;3488;42.616;23.350;2022-09-09T12:45:55;64876.31;;;27.72;47.21
6899;BME280;3488;42.616;23.350;2022-09-09T12:48:28;64886.81;;;27.87;48.04
6899;BME280;3488;42.616;23.350;2022-09-09T12:50:58;64846.41;;;27.44;48.51
6899;BME280;3488;42.616;23.350;2022-09-09T12:53:28;64863.72;;;27.60;47.53
6899;BME280;3488;42.616;23.350;2022-09-09T12:55:57;64854.78;;;27.49;48.07
6899;BME280;3488;42.616;23.350;2022-09-09T12:58:25;64873.16;;;27.69;49.25
6899;BME280;3488;42.616;23.350;2022-09-09T13:00:55;64914.13;;;28.11;48.78
6899;BME280;3488;42.616;23.350;2022-09-09T13:03:23;64955.06;;;28.45;46.89
6899;BME280;3488;42.616;23.350;2022-09-09T13:05:50;64979.78;;;28.76;45.95
6899;BME280;3488;42.616;23.350;2022-09-09T13:08:19;64991.31;;;28.85;45.42
6899;BME280;3488;42.616;23.350;2022-09-09T13:10:49;64952.97;;;28.40;44.78
6899;BME280;3488;42.616;23.350;2022-09-09T13:13:21;64950.34;;;28.40;45.26
6899;BME280;3488;42.616;23.350;2022-09-09T13:15:51;64869.50;;;27.66;45.66
6899;BME280;3488;42.616;23.350;2022-09-09T13:18:21;64857.44;;;27.57;47.30
6899;BME280;3488;42.616;23.350;2022-09-09T13:20:49;64819.13;;;27.22;47.00
6899;BME280;3488;42.616;23.350;2022-09-09T13:23:20;64791.81;;;26.94;47.30
6899;BME280;3488;42.616;23.350;2022-09-09T13:25:55;64806.00;;;27.05;48.29
6899;BME280;3488;42.616;23.350;2022-09-09T13:28:24;64847.47;;;27.47;46.99
6899;BME280;3488;42.616;23.350;2022-09-09T13:30:59;64816.50;;;27.17;49.12
6899;BME280;3488;42.616;23.350;2022-09-09T13:33:32;64792.88;;;26.95;48.99
6899;BME280;3488;42.616;23.350;2022-09-09T13:36:02;64819.63;;;27.18;48.62